METAR Data
IDs: Format: Raw Decoded Include TAF

Data at: 1353 UTC 22 Apr 2021

KFIN 221350Z 02010G18KT 10SM CLR 17/08 A3015
KFIN 221250Z 01014KT 10SM CLR 17/08 A3015
KFIN 221150Z 01008G17KT 10SM CLR 15/07 A3013
KFIN 221050Z 03011G16KT 10SM CLR 14/06 A3010
KFIN 220950Z 36008KT 10SM CLR 15/06 A3007
KFIN 220935Z AUTO 35008KT 10SM CLR 15/06 A3007 RMK AO2 T01510060
KFIN 220915Z AUTO 36010KT 10SM CLR 16/06 A3006 RMK AO2 T01550055
KFIN 220855Z AUTO 36008KT 10SM CLR 16/06 A3006 RMK AO2 60001 T01600057
KFIN 220835Z AUTO 36007KT 10SM CLR 16/07 A3005 RMK AO2 T01620065
KFIN 220815Z AUTO 35009KT 10SM CLR 17/07 A3005 RMK AO2 T01650068
KFIN 220755Z AUTO 35007KT 10SM CLR 17/07 A3003 RMK AO2 T01670074
KFIN 220735Z AUTO 35005KT 10SM CLR 17/09 A3003 RMK AO2 T01700094
KFIN 220715Z AUTO 35006KT 10SM CLR 17/11 A3003 RMK AO2 T01710107
KFIN 220655Z AUTO 34004KT 10SM CLR 17/13 A3002 RMK AO2 P0001 T01700125
KFIN 220635Z AUTO 34004KT 10SM CLR 17/14 A3002 RMK AO2 P0001 T01720136
KFIN 220615Z AUTO 33005KT 10SM CLR 17/14 A3002 RMK AO2 T01740142
KFIN 220555Z AUTO 31003KT 10SM CLR 17/15 A3002 RMK AO2 60002 T01700148 10240 20170 402890166
KFIN 220535Z AUTO 31004KT 10SM CLR 18/15 A3002 RMK AO2 T01780151
KFIN 220515Z AUTO 30004KT 10SM CLR 18/15 A3003 RMK AO2 T01810151
KFIN 220455Z AUTO 30004KT 10SM CLR 19/15 A3002 RMK AO2 T01870150
KFIN 220435Z AUTO 29004KT 10SM CLR 19/15 A3003 RMK AO2 T01910150
KFIN 220415Z AUTO 29006KT 10SM CLR 20/15 A3003 RMK AO2 T01960148
KFIN 220355Z AUTO 29008KT 10SM CLR 20/15 A3002 RMK AO2 T02000147
KFIN 220335Z AUTO 28006KT 10SM CLR 20/15 A3002 RMK AO2 T02010145
KFIN 220315Z AUTO 28006KT 10SM CLR 20/15 A3001 RMK AO2 T02040145
KFIN 220255Z AUTO 28007KT 10SM CLR 21/15 A3001 RMK AO2 P0001 60002 T02070145
KFIN 220235Z AUTO 28006KT 10SM CLR 21/14 A3000 RMK AO2 T02100143
KFIN 220215Z AUTO 28006KT 10SM CLR 21/14 A2999 RMK AO2 T02120142
KFIN 220155Z AUTO 28005KT 10SM CLR 22/14 A2998 RMK AO2 T02160140
KFIN 220055Z AUTO 00000KT 10SM CLR 20/15 A2996 RMK AO2 P0001 T02020152
KFIN 220035Z AUTO 00000KT 10SM CLR 21/15 A2995 RMK AO2 P0001 T02130154
KFIN 212250Z 28005KT 10SM CLR 27/11 A2993
KFIN 212150Z 28010G20KT 10SM CLR 28/10 A2992
KFIN 211950Z 26010G15KT 10SM CLR 28/11 A2993
KFIN 211850Z 25010G20KT 10SM CLR 28/12 A2995
KFIN 211750Z 25005G15KT 10SM CLR 27/12 A2996
KFIN 211650Z 31005KT 10SM CLR 26/13 A2999
KFIN 211550Z 28007KT 10SM CLR 26/14 A3000
KFIN 211450Z 31008KT 10SM SCT030 24/18 A2999
KFIN 211350Z 30006KT 10SM SCT014 22/19 A2999
KFIN 211322Z 29006KT 10SM SCT010 22/19 A2999
KFIN 211250Z 28004KT 10SM BKN005 20/19 A2999
KFIN 211150Z 27004KT 7SM OVC005 19/18 A2998
KFIN 211050Z 28003KT 10SM BKN005 OVC015 19/18 A2998
KFIN 210950Z 27003KT 2SM BR OVC003 19/18 A2996
KFIN 210935Z AUTO 00000KT 1 1/4SM BR OVC003 19/18 A2996 RMK AO2 P0001 T01860183
KFIN 210915Z AUTO 00000KT 3SM BR OVC003 19/18 A2996 RMK AO2 T01870184
KFIN 210855Z AUTO 00000KT 5SM BR OVC003 19/18 A2995 RMK AO2 P0001 60002 T01860183
KFIN 210815Z AUTO 00000KT 5SM BR OVC003 19/18 A2994 RMK AO2 P0001 T01850181
KFIN 210755Z AUTO 00000KT 3SM BR OVC003 18/18 A2994 RMK AO2 T01830180
KFIN 210735Z AUTO 00000KT 10SM OVC005 18/18 A2994 RMK AO2 T01800177
KFIN 210715Z AUTO 00000KT 10SM OVC005 18/17 A2994 RMK AO2 T01770173
KFIN 210655Z AUTO 00000KT 10SM BKN007 OVC033 18/17 A2994 RMK AO2 P0001 T01750171
KFIN 210615Z AUTO 00000KT 7SM SCT120 17/17 A2994 RMK AO2 T01690165
KFIN 210555Z AUTO 00000KT 10SM SCT033 18/17 A2994 RMK AO2 P0001 60006 T01750170 10203 20168
KFIN 210535Z AUTO 00000KT 10SM SCT035 BKN120 18/17 A2996 RMK AO2 T01750171
KFIN 210515Z AUTO 32004KT 10SM SCT120 17/17 A2996 RMK AO2 T01720169
KFIN 210455Z AUTO 00000KT 10SM SCT120 17/17 A2995 RMK AO2 P0001 T01700165
KFIN 210435Z AUTO 00000KT 10SM SCT120 17/17 A2995 RMK AO2 P0001 T01700166
KFIN 210415Z AUTO 00000KT 10SM CLR 17/17 A2996 RMK AO2 T01720168
KFIN 210355Z AUTO 00000KT 10SM CLR 18/17 A2996 RMK AO2 P0001 T01750170
KFIN 210335Z AUTO 00000KT 10SM CLR 18/17 A2996 RMK AO2 P0001 T01750170
KFIN 210315Z AUTO 00000KT 10SM SCT120 18/17 A2996 RMK AO2 T01760171
KFIN 210255Z AUTO 00000KT 10SM SCT120 17/17 A2995 RMK AO2 P0001 60003 T01720168
KFIN 210235Z AUTO 00000KT 10SM CLR 18/17 A2996 RMK AO2 P0001 T01750170
KFIN 210215Z AUTO 00000KT 10SM CLR 18/17 A2995 RMK AO2 T01800173
KFIN 210155Z AUTO 00000KT 10SM SCT049 19/18 A2996 RMK AO2 P0001 T01850176